createdAt,value
2018-09-04T00:02:27.089Z,28.57
2018-09-04T00:05:01.011Z,33.20
2018-09-04T00:07:34.770Z,35.17
2018-09-04T00:10:09.395Z,31.90
2018-09-04T00:12:42.758Z,38.33
2018-09-04T00:15:16.044Z,39.53
2018-09-04T00:17:50.532Z,41.43
2018-09-04T00:20:23.877Z,36.70
2018-09-04T00:22:57.759Z,45.03
2018-09-04T00:25:32.005Z,43.10
2018-09-04T00:28:08.309Z,52.20
2018-09-04T00:30:41.555Z,50.57
2018-09-04T00:33:15.188Z,54.23
2018-09-04T00:35:48.549Z,59.93
2018-09-04T00:38:22.146Z,57.50
2018-09-04T00:40:55.821Z,58.00
2018-09-04T00:43:29.447Z,54.30
2018-09-04T00:46:02.676Z,59.33
2018-09-04T00:48:36.143Z,61.07
2018-09-04T00:51:09.446Z,60.90
2018-09-04T00:53:42.724Z,61.50
2018-09-04T00:56:16.220Z,60.83
2018-09-04T00:58:49.485Z,59.93
2018-09-04T01:01:24.309Z,55.87
2018-09-04T01:03:57.713Z,51.83
2018-09-04T01:06:31.595Z,50.43
2018-09-04T01:09:05.364Z,41.93
2018-09-04T01:11:38.640Z,46.47
2018-09-04T01:14:12.096Z,44.50
2018-09-04T01:16:45.600Z,14.20
2018-09-04T01:19:19.432Z,15.10
2018-09-04T01:21:53.618Z,7.30
2018-09-04T01:24:27.543Z,15.27
2018-09-04T01:27:00.707Z,14.97
2018-09-04T01:29:35.486Z,14.23
2018-09-04T01:32:08.870Z,10.30
2018-09-04T01:34:42.517Z,14.03
2018-09-04T01:37:15.687Z,11.80
2018-09-04T01:39:49.019Z,11.73
2018-09-04T01:42:22.939Z,7.93
2018-09-04T01:44:56.495Z,9.80
2018-09-04T01:47:30.062Z,7.33
2018-09-04T01:50:04.230Z,6.90
2018-09-04T01:52:37.901Z,7.40
2018-09-04T01:55:11.281Z,7.90
2018-09-04T01:57:44.837Z,7.30
2018-09-04T02:00:18.419Z,8.97
2018-09-04T02:02:51.593Z,7.83
2018-09-04T02:05:25.165Z,7.90
2018-09-04T02:07:58.323Z,7.27
2018-09-04T02:10:33.300Z,5.50
2018-09-04T02:13:07.161Z,6.80
2018-09-04T02:15:41.127Z,6.03
2018-09-04T02:18:14.518Z,7.67
2018-09-04T02:20:47.915Z,6.80
2018-09-04T02:23:21.291Z,7.30
2018-09-04T02:25:54.542Z,6.40
2018-09-04T02:28:27.830Z,7.93
2018-09-04T02:31:01.869Z,7.53
2018-09-04T02:33:35.227Z,6.93
2018-09-04T02:36:08.493Z,10.33
2018-09-04T02:38:41.759Z,8.07
2018-09-04T02:41:15.225Z,7.90
2018-09-04T02:43:48.657Z,10.27
2018-09-04T02:46:21.836Z,12.07
2018-09-04T02:48:55.601Z,154.57
2018-09-04T02:51:29.098Z,18.37
2018-09-04T02:54:02.589Z,16.43
2018-09-04T02:56:36.019Z,19.20
2018-09-04T02:59:09.601Z,20.10
2018-09-04T03:01:42.989Z,16.07
2018-09-04T03:04:16.226Z,16.33
2018-09-04T03:06:49.419Z,20.43
2018-09-04T03:09:22.680Z,16.03
2018-09-04T03:11:56.168Z,13.27
2018-09-04T03:14:29.898Z,12.50
2018-09-04T03:17:03.020Z,11.67
2018-09-04T03:19:36.297Z,11.13
2018-09-04T03:22:09.841Z,10.10
2018-09-04T03:24:43.067Z,10.33
2018-09-04T03:27:16.216Z,11.30
2018-09-04T03:29:49.511Z,10.63
2018-09-04T03:32:23.247Z,16.77
2018-09-04T03:34:56.448Z,24.30
2018-09-04T03:37:29.539Z,20.83
2018-09-04T03:40:02.846Z,19.70
2018-09-04T03:42:36.021Z,18.73
2018-09-04T03:45:09.901Z,18.93
2018-09-04T03:47:43.572Z,20.33
2018-09-04T03:50:16.835Z,18.70
2018-09-04T03:52:50.504Z,16.60
2018-09-04T03:55:23.736Z,14.40
2018-09-04T03:57:58.027Z,16.80
2018-09-04T04:00:31.225Z,14.07
2018-09-04T04:03:04.991Z,13.30
2018-09-04T04:05:38.386Z,14.13
2018-09-04T04:08:11.622Z,13.67
2018-09-04T04:10:45.101Z,13.20
2018-09-04T04:13:18.536Z,14.70
2018-09-04T04:15:51.674Z,14.43
2018-09-04T04:18:25.000Z,14.03
2018-09-04T04:21:02.338Z,14.50
2018-09-04T04:23:35.530Z,13.75
2018-09-04T04:26:08.949Z,11.65
2018-09-04T04:28:42.613Z,12.43
2018-09-04T04:31:16.054Z,10.60
2018-09-04T04:33:49.653Z,10.73
2018-09-04T04:36:23.145Z,9.87
2018-09-04T04:38:56.489Z,10.53
2018-09-04T04:41:29.625Z,9.70
2018-09-04T04:44:02.996Z,8.30
2018-09-04T04:46:36.158Z,8.57
2018-09-04T04:49:10.342Z,9.00
2018-09-04T04:51:43.454Z,9.00
2018-09-04T04:54:16.890Z,10.23
2018-09-04T04:56:50.000Z,12.10
2018-09-04T04:59:23.246Z,10.05
2018-09-04T05:01:56.748Z,10.23
2018-09-04T05:04:30.098Z,13.20
2018-09-04T05:07:03.283Z,12.00
2018-09-04T05:09:37.071Z,13.60
2018-09-04T05:12:10.784Z,28.40
2018-09-04T05:14:44.168Z,29.10
2018-09-04T05:17:19.046Z,25.50
2018-09-04T05:19:52.354Z,18.03
2018-09-04T05:22:25.505Z,13.15
2018-09-04T05:24:58.704Z,11.80
2018-09-04T05:27:31.868Z,10.20
2018-09-04T05:30:05.516Z,10.97
2018-09-04T05:32:44.571Z,11.37
2018-09-04T05:35:18.309Z,10.50
2018-09-04T05:37:51.624Z,10.45
2018-09-04T05:40:25.001Z,10.00
2018-09-04T05:43:00.822Z,10.70
2018-09-04T05:45:35.375Z,13.65
2018-09-04T05:48:12.701Z,11.20
2018-09-04T05:50:47.041Z,11.70
2018-09-04T05:53:20.519Z,12.00
2018-09-04T05:55:54.044Z,12.25
2018-09-04T05:58:27.172Z,14.30
2018-09-04T06:01:03.498Z,13.20
2018-09-04T06:03:36.822Z,13.10
2018-09-04T06:06:10.231Z,11.50
2018-09-04T06:08:43.692Z,11.80
2018-09-04T06:11:17.156Z,12.00
2018-09-04T06:13:50.353Z,11.60
2018-09-04T06:16:23.913Z,11.37
2018-09-04T06:18:57.210Z,11.37
2018-09-04T06:21:30.317Z,10.03
2018-09-04T06:24:03.660Z,10.80
2018-09-04T06:26:36.833Z,10.53
2018-09-04T06:29:10.056Z,12.77
2018-09-04T06:31:43.315Z,11.50
2018-09-04T06:34:16.727Z,11.80
2018-09-04T06:36:50.537Z,11.85
2018-09-04T06:39:24.203Z,10.00
2018-09-04T06:41:57.564Z,9.55
2018-09-04T06:44:30.777Z,9.00
2018-09-04T06:47:03.971Z,9.10
2018-09-04T06:49:37.332Z,7.70
2018-09-04T06:52:11.812Z,8.93
2018-09-04T06:54:45.428Z,20.50
2018-09-04T06:57:19.286Z,22.95
2018-09-04T06:59:52.983Z,24.35
2018-09-04T07:02:26.188Z,26.45
2018-09-04T07:04:59.918Z,25.57
2018-09-04T07:07:33.075Z,28.77
2018-09-04T07:10:06.546Z,40.10
2018-09-04T07:12:39.772Z,34.73
2018-09-04T07:15:13.095Z,30.20
2018-09-04T07:17:46.526Z,32.43
2018-09-04T07:20:19.933Z,34.40
2018-09-04T07:22:53.573Z,30.15
2018-09-04T07:25:26.937Z,27.40
2018-09-04T07:28:00.126Z,24.83
2018-09-04T07:30:33.675Z,20.10
2018-09-04T07:33:06.998Z,15.90
2018-09-04T07:35:40.222Z,13.30
2018-09-04T07:38:13.527Z,13.20
2018-09-04T07:40:46.802Z,12.30
2018-09-04T07:43:19.991Z,12.50
2018-09-04T07:45:53.208Z,12.60
2018-09-04T07:48:26.355Z,13.37
2018-09-04T07:50:59.615Z,17.33
2018-09-04T07:53:33.309Z,19.63
2018-09-04T07:56:06.683Z,21.40
2018-09-04T07:58:40.329Z,22.73
2018-09-04T08:01:13.910Z,19.73
2018-09-04T08:03:47.190Z,20.03
2018-09-04T08:06:20.387Z,25.03
2018-09-04T08:08:53.672Z,23.80
2018-09-04T08:11:28.537Z,24.07
2018-09-04T08:14:01.881Z,23.50
2018-09-04T08:16:35.547Z,22.50
2018-09-04T08:19:08.869Z,23.10
2018-09-04T08:21:42.371Z,23.57
2018-09-04T08:24:15.610Z,21.27
2018-09-04T08:26:48.722Z,19.57
2018-09-04T08:29:22.045Z,21.37
2018-09-04T08:31:55.651Z,17.53
2018-09-04T08:34:29.015Z,17.77
2018-09-04T08:37:02.125Z,17.87
2018-09-04T08:39:35.671Z,16.87
2018-09-04T08:42:09.209Z,15.37
2018-09-04T08:44:42.586Z,17.53
2018-09-04T08:47:15.838Z,15.57
2018-09-04T08:49:49.179Z,16.47
2018-09-04T08:52:22.371Z,15.90
2018-09-04T08:54:56.518Z,14.60
2018-09-04T08:57:30.378Z,12.57
2018-09-04T09:00:04.014Z,14.53
2018-09-04T09:02:37.601Z,16.80
2018-09-04T09:05:11.110Z,18.97
2018-09-04T09:07:44.306Z,15.90
2018-09-04T09:10:17.855Z,16.17
2018-09-04T09:12:51.180Z,15.77
2018-09-04T09:15:24.890Z,16.37
2018-09-04T09:17:58.280Z,15.50
2018-09-04T09:20:31.714Z,16.47
2018-09-04T09:23:04.973Z,19.97
2018-09-04T09:25:38.619Z,21.53
2018-09-04T09:28:12.014Z,25.33
2018-09-04T09:30:45.922Z,20.47
2018-09-04T09:33:19.284Z,22.37
2018-09-04T09:35:52.586Z,20.97
2018-09-04T09:38:25.860Z,17.73
2018-09-04T09:40:59.234Z,16.80
2018-09-04T09:43:32.328Z,13.80
2018-09-04T09:46:05.732Z,12.20
2018-09-04T09:48:44.223Z,10.00
2018-09-04T09:51:17.685Z,10.77
2018-09-04T09:53:50.905Z,10.70
2018-09-04T09:56:24.685Z,10.63
2018-09-04T09:58:58.146Z,11.20
2018-09-04T10:01:36.112Z,9.50
2018-09-04T10:04:10.213Z,8.23
2018-09-04T10:06:43.495Z,8.73
2018-09-04T10:09:16.792Z,8.00
2018-09-04T10:11:50.191Z,8.23
2018-09-04T10:14:23.470Z,9.50
2018-09-04T10:16:57.106Z,11.00
2018-09-04T10:19:30.478Z,11.13
2018-09-04T10:22:04.177Z,10.47
2018-09-04T10:24:37.387Z,10.47
2018-09-04T10:27:10.637Z,8.80
2018-09-04T10:29:43.721Z,9.33
2018-09-04T10:32:17.089Z,9.33
2018-09-04T10:34:50.207Z,8.63
2018-09-04T10:37:23.704Z,9.67
2018-09-04T10:40:01.020Z,10.60
2018-09-04T10:42:35.114Z,11.83
2018-09-04T10:45:12.470Z,14.10
2018-09-04T10:47:45.753Z,15.97
2018-09-04T10:50:18.936Z,15.93
2018-09-04T10:52:52.276Z,14.70
2018-09-04T10:55:25.629Z,13.80
2018-09-04T10:57:59.830Z,14.47
2018-09-04T11:00:33.026Z,16.87
2018-09-04T11:03:06.472Z,16.63
2018-09-04T11:05:40.245Z,16.00
2018-09-04T11:08:13.571Z,17.20
2018-09-04T11:10:46.829Z,16.30
2018-09-04T11:13:20.271Z,14.87
2018-09-04T11:15:53.917Z,15.90
2018-09-04T11:18:27.311Z,19.20
2018-09-04T11:21:00.803Z,21.33
2018-09-04T11:23:34.224Z,24.27
2018-09-04T11:26:07.783Z,21.47
2018-09-04T11:28:44.523Z,23.37
2018-09-04T11:31:17.714Z,22.60
2018-09-04T11:33:51.051Z,23.73
2018-09-04T11:36:24.398Z,20.93
2018-09-04T11:38:57.505Z,23.40
2018-09-04T11:41:30.801Z,20.37
2018-09-04T11:44:04.206Z,17.30
2018-09-04T11:46:37.858Z,17.20
2018-09-04T11:49:11.023Z,14.50
2018-09-04T11:51:44.488Z,14.37
2018-09-04T11:54:17.619Z,16.77
2018-09-04T11:56:50.886Z,16.00
2018-09-04T11:59:24.858Z,14.87
2018-09-04T12:02:00.726Z,12.13
2018-09-04T12:04:34.221Z,11.63
2018-09-04T12:07:07.537Z,10.37
2018-09-04T12:09:40.778Z,10.17
2018-09-04T12:12:43.847Z,10.93
2018-09-04T12:15:17.048Z,9.87
2018-09-04T12:17:50.344Z,10.33
2018-09-04T12:20:48.225Z,9.57
2018-09-04T12:23:22.165Z,11.33
2018-09-04T12:25:57.733Z,10.83
2018-09-04T12:28:31.047Z,10.83
2018-09-04T12:31:04.699Z,10.37
2018-09-04T12:33:38.044Z,11.60
2018-09-04T12:36:11.837Z,12.03
2018-09-04T12:38:46.043Z,11.73
2018-09-04T12:41:20.398Z,12.23
2018-09-04T12:43:53.699Z,13.33
2018-09-04T12:46:30.690Z,14.80
2018-09-04T12:49:04.198Z,20.47
2018-09-04T12:51:37.312Z,28.73
2018-09-04T12:54:10.620Z,26.20
2018-09-04T12:56:44.647Z,26.63
2018-09-04T12:59:20.689Z,23.63
2018-09-04T13:01:54.314Z,25.07
2018-09-04T13:04:27.999Z,20.90
2018-09-04T13:07:01.517Z,17.67
2018-09-04T13:09:34.846Z,15.53
2018-09-04T13:12:08.007Z,10.47
2018-09-04T13:14:41.663Z,9.13
2018-09-04T13:17:14.978Z,8.60
2018-09-04T13:19:48.738Z,8.53
2018-09-04T13:22:22.161Z,10.50
2018-09-04T13:24:55.970Z,8.90
2018-09-04T13:27:29.299Z,9.80
2018-09-04T13:30:02.681Z,9.40
2018-09-04T13:32:36.235Z,8.73
2018-09-04T13:35:09.789Z,9.47
2018-09-04T13:37:42.949Z,9.33
2018-09-04T13:40:16.512Z,11.10
2018-09-04T13:42:49.788Z,10.03
2018-09-04T13:45:23.453Z,7.93
2018-09-04T13:47:57.511Z,17.70
2018-09-04T13:50:31.206Z,24.47
2018-09-04T13:53:04.557Z,22.60
2018-09-04T13:55:38.270Z,23.50
2018-09-04T13:58:11.726Z,32.90
2018-09-04T14:00:45.440Z,34.93
2018-09-04T14:03:19.425Z,38.23
2018-09-04T14:05:52.800Z,31.83
2018-09-04T14:08:26.422Z,27.37
2018-09-04T14:11:00.229Z,31.80
2018-09-04T14:13:33.610Z,37.13
2018-09-04T14:16:10.164Z,35.07
2018-09-04T14:18:43.469Z,31.63
2018-09-04T14:21:16.748Z,27.77
2018-09-04T14:23:51.089Z,23.67
2018-09-04T14:26:24.893Z,21.17
2018-09-04T14:29:06.861Z,15.90
2018-09-04T14:31:33.100Z,15.57
2018-09-04T14:34:06.235Z,18.47
2018-09-04T14:36:41.410Z,19.70
2018-09-04T14:39:15.962Z,15.90
2018-09-04T14:41:49.620Z,17.53
2018-09-04T14:44:23.393Z,14.70
2018-09-04T14:46:59.308Z,14.77
2018-09-04T14:49:34.979Z,13.67
2018-09-04T14:52:08.584Z,12.30
2018-09-04T14:54:41.836Z,11.03
2018-09-04T14:57:15.564Z,8.63
2018-09-04T14:59:49.088Z,9.00
2018-09-04T15:02:22.388Z,7.60
2018-09-04T15:04:56.471Z,7.53
2018-09-04T15:07:30.025Z,7.40
2018-09-04T15:10:03.447Z,6.20
2018-09-04T15:12:40.121Z,6.67
2018-09-04T15:15:17.622Z,5.67
